createdAt,value
2019-04-19T00:01:22.620Z,102587.22
2019-04-19T00:03:49.586Z,102582.17
2019-04-19T00:06:40.807Z,102577.17
2019-04-19T00:09:21.142Z,102577.17
2019-04-19T00:11:44.009Z,102579.13
2019-04-19T00:14:06.504Z,102579.87
2019-04-19T00:16:36.318Z,102578.25
2019-04-19T00:19:25.172Z,102579.17
2019-04-19T00:21:57.770Z,102577.92
2019-04-19T00:24:01.762Z,102577.55
2019-04-19T00:26:29.555Z,102574.73
2019-04-19T00:29:01.117Z,102573.02
2019-04-19T00:31:33.889Z,102576.77
2019-04-19T00:33:55.885Z,102574.53
2019-04-19T00:36:23.468Z,102571.86
2019-04-19T00:39:05.083Z,102570.79
2019-04-19T00:42:04.889Z,102573.48
2019-04-19T00:44:39.918Z,102569.92
2019-04-19T00:47:19.602Z,102568.84
2019-04-19T00:49:25.820Z,102568.44
2019-04-19T00:52:04.128Z,102570.05
2019-04-19T00:54:23.137Z,102568.48
2019-04-19T00:56:54.306Z,102572.74
2019-04-19T00:59:15.033Z,102570.14
2019-04-19T01:01:41.910Z,102570.00
2019-04-19T01:04:13.737Z,102573.34
2019-04-19T01:06:44.836Z,102574.86
2019-04-19T01:09:19.291Z,102571.67
2019-04-19T01:11:52.694Z,102571.89
2019-04-19T01:14:18.366Z,102573.84
2019-04-19T01:16:51.916Z,102569.66
2019-04-19T01:19:08.095Z,102573.88
2019-04-19T01:21:30.380Z,102576.42
2019-04-19T01:24:00.412Z,102582.34
2019-04-19T01:26:30.020Z,102585.20
2019-04-19T01:29:01.912Z,102585.58
2019-04-19T01:31:26.371Z,102592.70
2019-04-19T01:33:52.695Z,102589.51
2019-04-19T01:36:28.869Z,102582.97
2019-04-19T01:38:59.234Z,102583.52
2019-04-19T01:41:33.803Z,102581.91
2019-04-19T01:44:06.989Z,102581.62
2019-04-19T01:46:51.189Z,102581.69
2019-04-19T01:49:25.896Z,102580.30
2019-04-19T01:52:07.756Z,102584.74
2019-04-19T01:54:39.609Z,102579.67
2019-04-19T01:56:56.621Z,102581.44
2019-04-19T01:59:18.518Z,102578.17
2019-04-19T02:01:49.919Z,102584.08
2019-04-19T02:04:20.807Z,102575.92
2019-04-19T02:06:46.707Z,102581.98
2019-04-19T02:09:24.538Z,102585.33
2019-04-19T02:11:56.541Z,102581.77
2019-04-19T02:14:21.164Z,102586.39
2019-04-19T02:16:51.815Z,102595.75
2019-04-19T02:19:19.510Z,102587.78
2019-04-19T02:21:46.000Z,102586.02
2019-04-19T02:24:12.629Z,102593.44
2019-04-19T02:26:50.042Z,102593.14
2019-04-19T02:29:14.631Z,102595.27
2019-04-19T02:32:04.813Z,102594.14
2019-04-19T02:34:37.105Z,102591.89
2019-04-19T02:37:08.347Z,102594.60
2019-04-19T02:39:38.463Z,102595.73
2019-04-19T02:42:12.166Z,102596.80
2019-04-19T02:44:38.285Z,102598.29
2019-04-19T02:49:37.160Z,102597.41
2019-04-19T02:51:57.700Z,102599.78
2019-04-19T02:54:35.952Z,102596.03
2019-04-19T02:57:37.032Z,102592.69
2019-04-19T03:00:03.645Z,102593.72
2019-04-19T03:07:09.146Z,102592.92
2019-04-19T03:09:40.739Z,102592.86
2019-04-19T03:12:23.670Z,102598.45
2019-04-19T03:14:50.820Z,102587.56
2019-04-19T03:17:19.080Z,102593.44
2019-04-19T03:19:52.614Z,102592.24
2019-04-19T03:22:19.687Z,102600.89
2019-04-19T03:24:47.762Z,102595.29
2019-04-19T03:27:06.659Z,102594.42
2019-04-19T03:29:31.945Z,102593.44
2019-04-19T03:32:34.816Z,102593.05
2019-04-19T03:35:01.145Z,102589.87
2019-04-19T03:37:06.329Z,102595.20
2019-04-19T03:39:47.325Z,102592.69
2019-04-19T03:42:18.678Z,102594.71
2019-04-19T03:44:41.337Z,102596.32
2019-04-19T03:47:16.025Z,102601.46
2019-04-19T03:49:53.766Z,102596.47
2019-04-19T03:52:15.529Z,102597.20
2019-04-19T03:54:37.123Z,102602.55
2019-04-19T03:57:04.739Z,102599.36
2019-04-19T03:59:20.311Z,102596.84
2019-04-19T04:01:52.783Z,102600.97
2019-04-19T04:04:20.518Z,102605.24
2019-04-19T04:06:45.944Z,102600.11
2019-04-19T04:09:18.929Z,102608.51
2019-04-19T04:12:00.236Z,102601.16
2019-04-19T04:14:49.565Z,102603.48
2019-04-19T04:17:05.964Z,102612.20
2019-04-19T04:19:33.577Z,102610.02
2019-04-19T04:22:00.743Z,102607.22
2019-04-19T04:24:34.539Z,102617.33
2019-04-19T04:27:06.058Z,102617.06
2019-04-19T04:29:32.801Z,102619.19
2019-04-19T04:32:05.322Z,102619.30
2019-04-19T04:34:35.272Z,102620.19
2019-04-19T04:37:06.375Z,102626.03
2019-04-19T04:39:19.861Z,102636.28
2019-04-19T04:41:47.581Z,102630.41
2019-04-19T04:44:33.311Z,102627.40
2019-04-19T04:47:24.316Z,102639.07
2019-04-19T04:50:14.256Z,102637.98
2019-04-19T04:52:40.353Z,102633.17
2019-04-19T04:55:13.590Z,102644.73
2019-04-19T04:57:50.419Z,102643.67
2019-04-19T05:00:11.754Z,102650.61
2019-04-19T05:02:51.574Z,102653.18
2019-04-19T05:05:27.857Z,102645.97
2019-04-19T05:07:59.822Z,102654.51
2019-04-19T05:10:26.591Z,102661.84
2019-04-19T05:13:12.412Z,102655.60
2019-04-19T05:15:26.387Z,102658.54
2019-04-19T05:17:58.589Z,102662.11
2019-04-19T05:20:17.150Z,102661.99
2019-04-19T05:22:50.307Z,102664.48
2019-04-19T05:25:25.635Z,102664.31
2019-04-19T05:27:48.472Z,102663.58
2019-04-19T05:29:57.584Z,102666.63
2019-04-19T05:32:30.964Z,102668.00
2019-04-19T05:35:08.373Z,102662.47
2019-04-19T05:37:54.797Z,102665.28
2019-04-19T05:40:19.965Z,102672.14
2019-04-19T05:43:01.312Z,102675.88
2019-04-19T05:47:55.915Z,102676.28
2019-04-19T05:50:49.301Z,102683.01
2019-04-19T05:52:55.252Z,102682.06
2019-04-19T05:55:11.613Z,102680.56
2019-04-19T05:57:54.119Z,102679.44
2019-04-19T06:00:21.720Z,102680.53
2019-04-19T06:02:53.433Z,102682.78
2019-04-19T06:05:25.334Z,102682.52
2019-04-19T06:07:49.277Z,102682.78
2019-04-19T06:10:09.690Z,102684.09
2019-04-19T06:12:38.673Z,102684.42
2019-04-19T06:15:24.830Z,102686.99
2019-04-19T06:18:25.698Z,102690.62
2019-04-19T06:21:07.766Z,102691.69
2019-04-19T06:23:34.662Z,102691.78
2019-04-19T06:26:21.393Z,102695.59
2019-04-19T06:28:30.628Z,102693.12
2019-04-19T06:30:54.734Z,102692.22
2019-04-19T06:33:27.206Z,102694.42
2019-04-19T06:35:43.695Z,102698.70
2019-04-19T06:38:03.469Z,102704.23
2019-04-19T06:40:53.507Z,102707.51
2019-04-19T06:43:47.564Z,102711.91
2019-04-19T06:46:33.463Z,102714.06
2019-04-19T06:49:12.754Z,102714.70
2019-04-19T06:52:01.348Z,102710.83
2019-04-19T06:58:04.852Z,102707.72
2019-04-19T07:03:19.494Z,102724.95
2019-04-19T07:06:14.343Z,102724.97
2019-04-19T07:09:13.600Z,102720.72
2019-04-19T07:11:33.228Z,102719.59
2019-04-19T07:13:58.395Z,102721.94
2019-04-19T07:16:55.749Z,102714.48
2019-04-19T07:19:08.694Z,102714.48
2019-04-19T07:21:42.549Z,102723.36
2019-04-19T07:24:29.358Z,102719.05
2019-04-19T07:26:56.355Z,102719.05
2019-04-19T07:29:08.411Z,102726.21
2019-04-19T07:31:40.288Z,102734.04
2019-04-19T07:34:38.172Z,102731.09
2019-04-19T07:37:22.051Z,102729.20
2019-04-19T07:40:05.723Z,102738.16
2019-04-19T07:42:36.255Z,102731.33
2019-04-19T07:45:04.929Z,102737.67
2019-04-19T07:48:12.206Z,102737.34
2019-04-19T07:50:45.417Z,102735.39
2019-04-19T07:53:10.291Z,102742.48
2019-04-19T07:56:00.791Z,102741.30
2019-04-19T07:58:44.579Z,102740.46
2019-04-19T08:01:17.351Z,102743.59
2019-04-19T08:04:02.188Z,102739.33
2019-04-19T08:06:37.766Z,102740.05
2019-04-19T08:11:58.168Z,102746.54
2019-04-19T08:14:08.082Z,102742.26
2019-04-19T08:17:22.925Z,102753.42
2019-04-19T08:29:40.703Z,102759.22
2019-04-19T08:32:15.236Z,102757.34
2019-04-19T08:35:02.809Z,102755.56
2019-04-19T08:37:34.001Z,102754.52
2019-04-19T08:40:29.249Z,102753.02
2019-04-19T08:42:54.098Z,102755.44
2019-04-19T08:45:18.339Z,102754.88
2019-04-19T08:48:28.041Z,102752.30
2019-04-19T08:57:30.769Z,102756.70
2019-04-19T09:00:40.015Z,102752.35
2019-04-19T09:03:00.368Z,102752.70
2019-04-19T09:06:04.194Z,102748.19
2019-04-19T09:08:28.495Z,102754.73
2019-04-19T09:11:02.693Z,102752.43
2019-04-19T09:13:35.379Z,102749.82
2019-04-19T09:16:25.582Z,102753.47
2019-04-19T09:19:12.268Z,102754.50
2019-04-19T09:21:30.770Z,102755.94
2019-04-19T09:24:05.706Z,102754.46
2019-04-19T09:26:49.702Z,102753.16
2019-04-19T09:29:41.511Z,102758.43
2019-04-19T09:32:20.563Z,102750.03
2019-04-19T09:35:01.812Z,102752.30
2019-04-19T09:37:45.059Z,102750.73
2019-04-19T09:40:16.147Z,102750.36
2019-04-19T09:42:53.816Z,102749.48
2019-04-19T09:45:25.495Z,102745.95
2019-04-19T09:48:31.582Z,102741.07
2019-04-19T09:51:07.494Z,102751.79
2019-04-19T09:54:09.407Z,102749.36
2019-04-19T09:56:34.224Z,102744.62
2019-04-19T09:59:09.792Z,102736.50
2019-04-19T10:01:48.541Z,102739.23
2019-04-19T10:04:25.130Z,102739.45
2019-04-19T10:06:57.146Z,102736.92
2019-04-19T10:09:35.166Z,102736.05
2019-04-19T10:12:09.394Z,102732.47
2019-04-19T10:14:48.912Z,102731.78
2019-04-19T10:17:52.348Z,102731.21
2019-04-19T10:20:33.347Z,102731.36
2019-04-19T10:26:12.276Z,102720.41
2019-04-19T10:28:58.574Z,102730.27
2019-04-19T10:31:56.654Z,102726.62
2019-04-19T10:34:34.445Z,102725.58
2019-04-19T10:37:21.853Z,102724.97
2019-04-19T10:39:57.561Z,102726.81
2019-04-19T10:42:27.300Z,102727.04
2019-04-19T10:45:07.966Z,102724.72
2019-04-19T10:47:35.789Z,102723.66
2019-04-19T10:52:58.606Z,102719.13
2019-04-19T10:55:36.675Z,102719.06
2019-04-19T10:58:05.388Z,102718.05
2019-04-19T11:00:59.590Z,102716.29
2019-04-19T11:03:54.901Z,102719.23
2019-04-19T11:06:41.715Z,102719.79
2019-04-19T11:09:22.775Z,102715.48
2019-04-19T11:12:01.790Z,102707.90
2019-04-19T11:14:37.175Z,102711.18
2019-04-19T11:17:19.887Z,102705.30
2019-04-19T11:20:04.698Z,102701.71
2019-04-19T11:22:42.102Z,102709.84
2019-04-19T11:25:10.262Z,102702.06
2019-04-19T11:27:52.822Z,102696.98
2019-04-19T11:30:56.818Z,102698.27
2019-04-19T11:36:47.650Z,102702.87
2019-04-19T11:39:14.899Z,102696.97
2019-04-19T11:41:41.651Z,102690.86
2019-04-19T11:44:19.041Z,102695.47
2019-04-19T11:46:42.288Z,102690.77
2019-04-19T11:49:23.783Z,102696.47
2019-04-19T11:51:41.828Z,102688.40
2019-04-19T11:54:10.361Z,102684.52
2019-04-19T11:56:50.703Z,102682.90
2019-04-19T11:59:45.860Z,102678.59
2019-04-19T12:02:34.209Z,102679.47
2019-04-19T12:05:12.912Z,102673.88
2019-04-19T12:07:34.728Z,102674.45
2019-04-19T12:10:03.201Z,102673.63
2019-04-19T12:12:32.900Z,102669.05
2019-04-19T12:15:02.330Z,102666.67
2019-04-19T12:17:31.343Z,102663.77
2019-04-19T12:20:02.841Z,102664.91
2019-04-19T12:22:27.950Z,102663.36
2019-04-19T12:24:55.332Z,102658.44
2019-04-19T12:27:23.555Z,102659.27
2019-04-19T12:29:53.330Z,102653.77
2019-04-19T12:32:21.096Z,102650.68
2019-04-19T12:34:48.749Z,102658.19
2019-04-19T12:37:15.557Z,102653.34
2019-04-19T12:39:43.225Z,102659.06
2019-04-19T12:42:28.207Z,102649.98
2019-04-19T12:44:55.075Z,102655.55
2019-04-19T12:47:22.631Z,102653.05
2019-04-19T12:49:56.051Z,102654.39
2019-04-19T12:52:18.193Z,102656.15
2019-04-19T12:54:45.881Z,102657.67
2019-04-19T12:57:14.050Z,102649.73
2019-04-19T12:59:42.160Z,102655.67
2019-04-19T13:02:17.947Z,102647.34
2019-04-19T13:05:02.939Z,102649.47
2019-04-19T13:07:31.103Z,102649.44
2019-04-19T13:09:59.208Z,102641.52
2019-04-19T13:12:26.591Z,102643.36
2019-04-19T13:14:53.529Z,102636.45
2019-04-19T13:17:20.303Z,102631.11
2019-04-19T13:19:47.586Z,102631.15
2019-04-19T13:22:16.496Z,102628.59
2019-04-19T13:24:44.598Z,102624.23
2019-04-19T13:27:11.640Z,102624.91
2019-04-19T13:29:38.474Z,102619.03
2019-04-19T13:32:06.373Z,102612.30
2019-04-19T13:34:33.544Z,102622.16
2019-04-19T13:37:27.201Z,102610.46
2019-04-19T13:40:03.981Z,102610.89
2019-04-19T13:42:35.096Z,102611.21
2019-04-19T13:45:13.966Z,102615.23
2019-04-19T13:47:31.795Z,102613.52
2019-04-19T13:49:58.602Z,102612.57
2019-04-19T13:52:26.339Z,102608.14
2019-04-19T13:54:53.121Z,102608.63
2019-04-19T13:57:19.826Z,102608.27
2019-04-19T13:59:54.561Z,102607.47
2019-04-19T14:02:19.343Z,102609.89
2019-04-19T14:04:45.643Z,102605.58
2019-04-19T14:07:12.630Z,102604.56
2019-04-19T14:09:39.608Z,102599.78
2019-04-19T14:12:07.139Z,102607.95
2019-04-19T14:14:34.931Z,102608.17
2019-04-19T14:17:01.928Z,102618.18
2019-04-19T14:19:29.245Z,102611.64
2019-04-19T14:21:57.169Z,102603.20
2019-04-19T14:24:25.106Z,102611.28
2019-04-19T14:26:55.823Z,102605.32
2019-04-19T14:29:21.383Z,102603.14
2019-04-19T14:31:48.573Z,102599.42
2019-04-19T14:34:15.414Z,102589.39
2019-04-19T14:36:42.353Z,102595.48
2019-04-19T14:39:09.111Z,102593.58
2019-04-19T14:41:38.038Z,102584.52
2019-04-19T14:44:04.961Z,102583.58
2019-04-19T14:46:32.433Z,102589.39
2019-04-19T14:49:00.628Z,102589.66
2019-04-19T14:51:29.180Z,102586.20
2019-04-19T14:53:56.200Z,102585.98
2019-04-19T14:56:23.860Z,102589.64
2019-04-19T14:58:50.800Z,102586.94
2019-04-19T15:01:46.868Z,102579.31
2019-04-19T15:04:28.884Z,102582.13
2019-04-19T15:06:55.693Z,102575.11
2019-04-19T15:09:23.571Z,102580.34
2019-04-19T15:11:50.441Z,102575.52
2019-04-19T15:14:18.577Z,102579.09
2019-04-19T15:16:45.493Z,102577.74
2019-04-19T15:19:12.277Z,102569.56
2019-04-19T15:21:40.478Z,102579.05
2019-04-19T15:24:08.618Z,102572.11
2019-04-19T15:26:36.583Z,102574.44
2019-04-19T15:29:04.916Z,102578.06
2019-04-19T15:31:32.291Z,102575.23
2019-04-19T15:33:59.166Z,102574.39
2019-04-19T15:36:26.048Z,102577.14
2019-04-19T15:38:53.361Z,102576.33
2019-04-19T15:41:20.103Z,102567.80
2019-04-19T15:43:48.063Z,102569.82
2019-04-19T15:46:15.635Z,102572.89
2019-04-19T15:48:46.880Z,102572.03
2019-04-19T15:51:20.177Z,102579.02
2019-04-19T15:53:42.309Z,102568.44
2019-04-19T15:56:09.401Z,102565.79
2019-04-19T15:58:36.422Z,102564.20
2019-04-19T16:01:06.112Z,102565.97
2019-04-19T16:03:45.874Z,102566.47
2019-04-19T16:06:22.469Z,102561.94
2019-04-19T16:09:05.403Z,102562.58
2019-04-19T16:12:05.961Z,102563.88
2019-04-19T16:14:32.985Z,102560.42
2019-04-19T16:17:00.934Z,102558.98
2019-04-19T16:19:28.277Z,102557.20
2019-04-19T16:21:58.375Z,102561.90
2019-04-19T16:24:25.082Z,102553.92
2019-04-19T16:26:53.139Z,102559.14
2019-04-19T16:29:27.783Z,102559.21
2019-04-19T16:31:50.910Z,102552.60
2019-04-19T16:34:18.276Z,102558.47
2019-04-19T16:36:45.376Z,102554.42
2019-04-19T16:39:12.471Z,102557.20
2019-04-19T16:41:41.144Z,102559.80
2019-04-19T16:44:07.947Z,102560.65
2019-04-19T16:46:35.558Z,102549.13
2019-04-19T16:49:02.732Z,102551.69
2019-04-19T16:51:37.685Z,102551.69
2019-04-19T16:54:00.289Z,102554.75
2019-04-19T16:56:27.825Z,102551.23
2019-04-19T16:58:55.134Z,102544.86
2019-04-19T17:01:22.915Z,102547.98
2019-04-19T17:03:50.017Z,102547.42
2019-04-19T17:06:18.291Z,102542.58
2019-04-19T17:08:46.142Z,102548.75
2019-04-19T17:11:13.584Z,102547.84
2019-04-19T17:13:40.679Z,102548.64
2019-04-19T17:16:25.343Z,102547.23
2019-04-19T17:19:15.208Z,102547.25
2019-04-19T17:21:50.619Z,102545.70
2019-04-19T17:24:11.374Z,102551.08
2019-04-19T17:26:38.595Z,102551.75
2019-04-19T17:29:06.701Z,102552.55
2019-04-19T17:31:34.183Z,102550.08
2019-04-19T17:34:02.214Z,102552.13
2019-04-19T17:36:30.389Z,102552.63
2019-04-19T17:38:58.724Z,102551.36
2019-04-19T17:41:26.233Z,102554.65
2019-04-19T17:43:53.457Z,102556.98
2019-04-19T17:46:20.687Z,102561.52
2019-04-19T17:48:48.555Z,102565.50
2019-04-19T17:51:17.785Z,102568.19
2019-04-19T17:53:48.603Z,102573.41
2019-04-19T17:56:13.294Z,102569.22
2019-04-19T17:58:40.327Z,102570.03
2019-04-19T18:01:08.397Z,102580.10
2019-04-19T18:03:35.342Z,102582.11
2019-04-19T18:06:02.236Z,102586.57
2019-04-19T18:08:32.653Z,102588.22
2019-04-19T18:11:00.906Z,102589.83
2019-04-19T18:13:29.031Z,102593.58
2019-04-19T18:15:56.377Z,102587.19
2019-04-19T18:18:29.891Z,102596.19
2019-04-19T18:20:58.535Z,102604.86
2019-04-19T18:23:35.780Z,102599.47
2019-04-19T18:25:53.022Z,102597.26
2019-04-19T18:28:19.889Z,102599.23
2019-04-19T18:30:51.376Z,102602.51
2019-04-19T18:33:24.560Z,102602.00
2019-04-19T18:35:58.637Z,102612.06
2019-04-19T18:38:23.243Z,102611.88
2019-04-19T18:40:49.257Z,102615.20
2019-04-19T18:43:27.828Z,102617.64
2019-04-19T18:45:45.757Z,102615.86
2019-04-19T18:48:13.577Z,102615.91
2019-04-19T18:50:44.773Z,102556.45
2019-04-19T18:53:19.211Z,102615.97
2019-04-19T18:55:43.407Z,102615.97
2019-04-19T18:58:06.674Z,102625.09
2019-04-19T19:00:42.279Z,102621.06
2019-04-19T19:03:05.052Z,102628.64
2019-04-19T19:05:34.935Z,102626.08
2019-04-19T19:08:03.221Z,102622.42
2019-04-19T19:10:39.046Z,102628.39
2019-04-19T19:12:58.290Z,102633.23
2019-04-19T19:15:32.150Z,102632.88
2019-04-19T19:17:56.436Z,102637.81
2019-04-19T19:20:32.418Z,102637.83
2019-04-19T19:23:11.123Z,102633.80
2019-04-19T19:25:38.536Z,102639.39
2019-04-19T19:27:57.985Z,102648.98
2019-04-19T19:30:25.031Z,102649.98
2019-04-19T19:32:55.063Z,102644.19
2019-04-19T19:35:24.655Z,102653.02
2019-04-19T19:37:50.750Z,102652.51
2019-04-19T19:40:31.071Z,102653.66
2019-04-19T19:43:07.128Z,102647.46
2019-04-19T19:45:31.246Z,102649.73
2019-04-19T19:48:26.034Z,102651.98
2019-04-19T19:51:00.651Z,102645.12
2019-04-19T19:53:35.793Z,102652.31
2019-04-19T19:56:05.410Z,102656.72
2019-04-19T19:58:15.838Z,102656.45
2019-04-19T20:00:47.839Z,102655.55
2019-04-19T20:03:11.687Z,102660.62
2019-04-19T20:05:34.473Z,102660.97
2019-04-19T20:07:59.538Z,102656.55
2019-04-19T20:10:37.231Z,102662.92
2019-04-19T20:12:57.841Z,102658.61
2019-04-19T20:15:25.084Z,102660.36
2019-04-19T20:17:57.595Z,102655.55
2019-04-19T20:20:28.191Z,102662.08
2019-04-19T20:22:52.026Z,102656.00
2019-04-19T20:25:32.459Z,102659.28
2019-04-19T20:27:51.666Z,102656.65
2019-04-19T20:30:19.531Z,102659.63
2019-04-19T20:32:52.775Z,102660.27
2019-04-19T20:35:19.568Z,102663.22
2019-04-19T20:37:46.647Z,102656.11
2019-04-19T20:40:17.633Z,102659.27
2019-04-19T20:43:07.531Z,102653.30
2019-04-19T20:45:26.447Z,102653.91
2019-04-19T20:47:48.111Z,102657.20
2019-04-19T20:50:22.519Z,102659.00
2019-04-19T20:52:51.694Z,102663.82
2019-04-19T20:55:28.315Z,102661.46
2019-04-19T20:58:03.192Z,102655.40
2019-04-19T21:00:49.967Z,102664.37
2019-04-19T21:03:22.672Z,102659.34
2019-04-19T21:05:48.067Z,102655.59
2019-04-19T21:08:15.863Z,102667.75
2019-04-19T21:10:50.788Z,102662.47
2019-04-19T21:13:17.128Z,102674.39
2019-04-19T21:15:43.816Z,102664.91
2019-04-19T21:18:16.875Z,102670.36
2019-04-19T21:20:40.652Z,102678.41
2019-04-19T21:23:16.177Z,102674.63
2019-04-19T21:25:45.836Z,102672.01
2019-04-19T21:28:05.337Z,102673.25
2019-04-19T21:30:32.232Z,102672.69
2019-04-19T21:33:04.905Z,102672.52
2019-04-19T21:35:29.965Z,102677.92
2019-04-19T21:37:57.959Z,102675.34
2019-04-19T21:40:31.326Z,102676.32
2019-04-19T21:42:57.683Z,102676.97
2019-04-19T21:45:23.364Z,102672.23
2019-04-19T21:47:53.377Z,102672.54
2019-04-19T21:50:23.082Z,102676.23
2019-04-19T21:52:52.436Z,102674.53
2019-04-19T21:55:27.040Z,102678.47
2019-04-19T21:57:46.103Z,102679.44
2019-04-19T22:00:24.979Z,102679.89
2019-04-19T22:02:53.467Z,102686.19
2019-04-19T22:05:27.497Z,102676.81
2019-04-19T22:07:50.715Z,102686.44
2019-04-19T22:10:19.129Z,102676.69
2019-04-19T22:12:50.481Z,102680.07
2019-04-19T22:15:17.372Z,102678.52
2019-04-19T22:17:48.793Z,102678.52
2019-04-19T22:20:16.396Z,102681.91
2019-04-19T22:22:43.423Z,102678.69
2019-04-19T22:25:18.935Z,102681.69
2019-04-19T22:27:39.216Z,102673.92
2019-04-19T22:30:07.444Z,102673.92
2019-04-19T22:32:34.476Z,102677.77
2019-04-19T22:35:07.514Z,102680.98
2019-04-19T22:37:33.966Z,102680.98
2019-04-19T22:40:00.551Z,102674.75
2019-04-19T22:42:28.753Z,102683.32
2019-04-19T22:44:56.627Z,102683.32
2019-04-19T22:47:26.991Z,102682.02
2019-04-19T22:49:53.610Z,102678.20
2019-04-19T22:52:20.707Z,102678.20
2019-04-19T22:54:48.727Z,102673.27
2019-04-19T22:57:19.632Z,102671.14
2019-04-19T22:59:48.232Z,102671.14
2019-04-19T23:02:38.070Z,102676.43
2019-04-19T23:05:01.189Z,102676.43
2019-04-19T23:07:33.608Z,102677.63
2019-04-19T23:09:57.486Z,102666.99
2019-04-19T23:12:24.778Z,102666.99
2019-04-19T23:14:53.221Z,102664.86
2019-04-19T23:17:28.243Z,102664.86
2019-04-19T23:19:52.749Z,102666.45
2019-04-19T23:22:22.827Z,102670.01
2019-04-19T23:24:53.424Z,102659.88
2019-04-19T23:27:29.076Z,102662.45
2019-04-19T23:29:44.946Z,102662.45
2019-04-19T23:32:16.631Z,102667.23
2019-04-19T23:34:47.255Z,102667.80
2019-04-19T23:37:13.042Z,102657.84
2019-04-19T23:39:44.921Z,102664.17
2019-04-19T23:42:07.072Z,102664.17
2019-04-19T23:44:33.982Z,102664.23
2019-04-19T23:47:02.235Z,102664.23
2019-04-19T23:49:31.164Z,102662.45
2019-04-19T23:51:59.021Z,102661.69
2019-04-19T23:54:29.585Z,102658.48
2019-04-19T23:57:04.534Z,102657.92
2019-04-19T23:59:24.557Z,102657.92
